TimeEST,TemperatureF,Dew PointF,Humidity,Sea Level PressureIn,VisibilityMPH,Wind Direction,Wind SpeedMPH,Gust SpeedMPH,PrecipitationIn,Events,Conditions,WindDirDegrees,DateUTC
12:53 AM,30.0,19.0,64,30.12,10.0,West,8.1,-,N/A,,Overcast,270,2013-01-04 05:53:00
1:53 AM,30.9,19.0,61,30.13,10.0,West,8.1,-,N/A,,Overcast,270,2013-01-04 06:53:00
2:53 AM,32.0,19.0,59,30.14,10.0,West,10.4,-,N/A,,Overcast,280,2013-01-04 07:53:00
3:53 AM,32.0,19.0,59,30.14,10.0,West,10.4,-,N/A,,Overcast,270,2013-01-04 08:53:00
4:53 AM,32.0,19.0,59,30.14,10.0,West,12.7,-,N/A,,Overcast,270,2013-01-04 09:53:00
5:53 AM,32.0,19.0,59,30.14,10.0,West,12.7,-,N/A,,Overcast,270,2013-01-04 10:53:00
8:53 AM,32.0,19.0,59,30.15,10.0,West,15.0,-,N/A,,Overcast,280,2013-01-04 13:53:00
9:53 AM,33.1,21.0,61,30.16,8.0,West,15.0,-,N/A,,Overcast,280,2013-01-04 14:53:00
10:53 AM,33.1,19.9,59,30.14,8.0,West,19.6,23.0,N/A,,Overcast,280,2013-01-04 15:53:00
11:53 AM,34.0,19.9,56,30.12,9.0,WNW,23.0,28.8,N/A,,Overcast,290,2013-01-04 16:53:00
12:53 PM,36.0,19.9,52,30.08,10.0,West,16.1,25.3,N/A,,Overcast,280,2013-01-04 17:53:00
1:53 PM,37.0,19.0,48,30.05,10.0,West,23.0,-,N/A,,Clear,270,2013-01-04 18:53:00
2:53 PM,37.9,19.0,47,30.04,10.0,West,19.6,25.3,N/A,,Clear,270,2013-01-04 19:53:00
3:53 PM,37.0,19.9,50,30.05,10.0,West,16.1,21.9,N/A,,Clear,260,2013-01-04 20:53:00
4:53 PM,35.1,19.9,54,30.05,10.0,West,9.2,-,N/A,,Clear,260,2013-01-04 21:53:00
5:53 PM,33.1,19.9,59,30.05,10.0,West,11.5,-,N/A,,Clear,270,2013-01-04 22:53:00
6:53 PM,33.1,19.9,59,30.07,10.0,West,10.4,-,N/A,,Clear,270,2013-01-04 23:53:00
7:53 PM,32.0,19.0,59,30.07,10.0,West,9.2,-,N/A,,Clear,260,2013-01-05 00:53:00
8:53 PM,30.0,19.0,64,30.08,10.0,West,6.9,-,N/A,,Clear,270,2013-01-05 01:53:00
9:53 PM,30.0,18.0,61,30.09,10.0,West,5.8,-,N/A,,Clear,260,2013-01-05 02:53:00
10:53 PM,30.9,18.0,59,30.09,10.0,West,9.2,-,N/A,,Clear,260,2013-01-05 03:53:00